Sunday, October 21, 2018, 1:21 PM EDT
Back to Local

KJGG, Williamsburg, Williamsburg-jamestown Airport

Location: Williamsburg, VA, United States Lat: 37.239
Local Time: 1:21 PM EDT (17:21 GMT) Lon: -76.716
Time Zone: US/Eastern Elev: 49 ft

Show me the last for .
Show Decoded

2018-10-21 12:55 METAR KJGG 211655Z AUTO 34012G20KT 310V010 10SM SCT049 14/M01 A3014 RMK AO1 =
2018-10-21 12:35 METAR KJGG 211635Z AUTO 33014G21KT SCT049 14/M01 A3013 RMK AO1 =
2018-10-21 12:15 METAR KJGG 211615Z AUTO 32015G22KT 280V340 10SM SCT049 14/M01 A3013 RMK AO1 =
2018-10-21 11:55 METAR KJGG 211555Z AUTO 34013G21KT 320V020 10SM CLR 14/01 A3013 RMK AO1 =
2018-10-21 11:35 METAR KJGG 211535Z AUTO 33013G20KT 10SM CLR 14/00 A3013 RMK AO1 =
2018-10-21 11:15 METAR KJGG 211515Z AUTO 35009G24KT 330V040 CLR 13/00 A3013 RMK AO1 =
2018-10-21 10:55 METAR KJGG 211455Z AUTO 36009G25KT CLR 12/00 A3012 RMK AO1 =
2018-10-21 10:35 METAR KJGG 211435Z AUTO 34010G29KT CLR 11/M01 A3011 RMK AO1 =
2018-10-21 10:15 METAR KJGG 211415Z AUTO 34017G28KT CLR 11/M01 A3010 RMK AO1 =
2018-10-21 09:55 METAR KJGG 211355Z AUTO 34014G27KT 310V020 CLR 11/M01 A3009 RMK AO1 =
2018-10-21 09:35 METAR KJGG 211335Z AUTO 34014G24KT 310V010 CLR 10/01 A3009 RMK AO1 =
2018-10-21 09:15 METAR KJGG 211315Z AUTO 34015G25KT CLR 09/01 A3007 RMK AO1 =
2018-10-21 08:55 METAR KJGG 211255Z AUTO 34016G26KT CLR 09/01 A3006 RMK AO1 =
2018-10-21 08:35 METAR KJGG 211235Z AUTO 34011G25KT CLR 09/01 A3005 RMK AO1 =
2018-10-21 08:15 METAR KJGG 211215Z AUTO 33011G17KT CLR 09/01 A3004 RMK AO1 =
2018-10-21 07:55 METAR KJGG 211155Z AUTO 32009G15KT CLR 09/01 A3002 RMK AO1 =
2018-10-21 07:35 METAR KJGG 211135Z AUTO 31012G21KT CLR 09/00 A3000 RMK AO1 =
2018-10-21 07:15 METAR KJGG 211115Z AUTO 32014G20KT CLR 09/00 A2999 RMK AO1 =
2018-10-21 06:55 METAR KJGG 211055Z AUTO 31013G19KT CLR 09/00 A2997 RMK AO1 =
2018-10-21 06:35 METAR KJGG 211035Z AUTO 31009G21KT CLR 09/M01 A2996 RMK AO1 =
2018-10-21 06:15 METAR KJGG 211015Z AUTO 31016G20KT CLR 09/00 A2995 RMK AO1 =
2018-10-21 05:55 METAR KJGG 210955Z AUTO 30010G19KT CLR 09/M01 A2994 RMK AO1 =
2018-10-21 05:35 METAR KJGG 210935Z AUTO 30016G25KT CLR 10/M01 A2993 RMK AO1 =
2018-10-21 05:15 METAR KJGG 210915Z AUTO 30017G21KT SCT090 10/00 A2991 RMK AO1 =
2018-10-21 04:55 METAR KJGG 210855Z AUTO 31016G25KT BKN090 BKN110 11/01 A2990 RMK AO1 =
2018-10-21 04:35 METAR KJGG 210835Z AUTO 30016G23KT BKN100 11/02 A2989 RMK AO1 =
2018-10-21 04:15 METAR KJGG 210815Z AUTO 31017G23KT SCT100 11/03 A2987 RMK AO1 =
2018-10-21 03:55 METAR KJGG 210755Z AUTO 31010G15KT CLR 11/05 A2987 RMK AO1 =
2018-10-21 03:35 METAR KJGG 210735Z AUTO 33008G17KT SCT080 11/05 A2986 RMK AO1 =
2018-10-21 03:15 METAR KJGG 210715Z AUTO 33011G17KT BKN090 12/05 A2985 RMK AO1 =
2018-10-21 02:55 METAR KJGG 210655Z AUTO 34012G18KT 310V020 SCT060 OVC090 12/06 A2984 RMK AO1 =
2018-10-21 02:35 METAR KJGG 210635Z AUTO 34018G25KT 310V010 BKN060 BKN075 OVC110 13/07 A2984 RMK
                 AO1 =
2018-10-21 02:15 METAR KJGG 210615Z AUTO 34007G17KT SCT075 SCT100 120 13/08 A2982 RMK AO1 =
2018-10-21 01:55 METAR KJGG 210555Z AUTO 34008G21KT SCT080 BKN095 13/08 A2980 RMK AO1 =
2018-10-21 01:35 METAR KJGG 210535Z AUTO 31007KT SCT090 14/09 A2978 RMK AO1 =
2018-10-21 01:15 METAR KJGG 210515Z AUTO 29004KT CLR 14/09 A2977 RMK AO1 =
2018-10-21 00:55 METAR KJGG 210455Z AUTO 30004G08KT CLR 14/10 A2976 RMK AO1 =
2018-10-21 00:35 METAR KJGG 210435Z AUTO 29003KT CLR 14/11 A2976 RMK AO1 =
2018-10-21 00:15 METAR KJGG 210415Z AUTO 28003KT CLR 15/12 A2976 RMK AO1 =
2018-10-20 23:55 METAR KJGG 210355Z AUTO 27005KT CLR 16/12 A2975 RMK AO1 =
2018-10-20 23:35 METAR KJGG 210335Z AUTO 00000KT CLR 16/12 A2975 RMK AO1 =
2018-10-20 23:15 METAR KJGG 210315Z AUTO 27003KT 16/13 A2975 RMK AO1 =
2018-10-20 22:55 METAR KJGG 210255Z AUTO 28005KT 16/14 A2975 RMK AO1 =
2018-10-20 22:35 METAR KJGG 210235Z AUTO 27007KT A2974 RMK AO1 =
2018-10-20 22:15 METAR KJGG 210215Z AUTO 00000KT A2973 RMK AO1 =
2018-10-20 21:55 METAR KJGG 210155Z AUTO 00000KT 16/15 A2974 RMK AO1 =
2018-10-20 21:35 METAR KJGG 210135Z AUTO 00000KT 16/15 A2974 RMK AO1 =
2018-10-20 21:15 METAR KJGG 210115Z AUTO 00000KT 16/15 A2974 RMK AO1 =
2018-10-20 20:55 METAR KJGG 210055Z AUTO 00000KT 16/15 A2974 RMK AO1 =
2018-10-20 20:35 METAR KJGG 210035Z AUTO 00000KT 17/15 A2974 RMK AO1 =
2018-10-20 20:15 METAR KJGG 210015Z AUTO 00000KT 10SM CLR 17/15 A2975 RMK AO1 =
2018-10-20 19:55 METAR KJGG 202355Z AUTO 00000KT 10SM CLR 17/15 A2974 RMK AO1 =
2018-10-20 19:35 METAR KJGG 202335Z AUTO 00000KT 10SM CLR 17/15 A2974 RMK AO1 =
2018-10-20 19:15 METAR KJGG 202315Z AUTO 00000KT 10SM CLR 17/15 A2974 RMK AO1 =
2018-10-20 18:55 METAR KJGG 202255Z AUTO 00000KT 10SM CLR 17/15 A2973 RMK AO1 =
2018-10-20 18:35 METAR KJGG 202235Z AUTO 00000KT 10SM CLR 17/15 A2972 RMK AO1 =
2018-10-20 18:15 METAR KJGG 202215Z AUTO 00000KT 10SM CLR 18/15 A2972 RMK AO1 =
2018-10-20 17:55 METAR KJGG 202155Z AUTO 00000KT 10SM CLR 18/15 A2972 RMK AO1 =
2018-10-20 17:35 METAR KJGG 202135Z AUTO 00000KT CLR 18/15 A2971 RMK AO1 =
2018-10-20 17:15 METAR KJGG 202115Z AUTO 00000KT SCT049 18/16 A2972 RMK AO1 =
2018-10-20 16:55 METAR KJGG 202055Z AUTO 00000KT CLR 18/16 A2973 RMK AO1 =
2018-10-20 16:35 METAR KJGG 202035Z AUTO 25004KT CLR 18/16 A2973 RMK AO1 =
2018-10-20 16:15 METAR KJGG 202015Z AUTO 25003KT 10SM SCT011 18/17 A2975 RMK AO1 =
2018-10-20 15:55 METAR KJGG 201955Z AUTO 00000KT 10SM SCT009 18/17 A2975 RMK AO1 P0001 =
2018-10-20 15:35 METAR KJGG 201935Z AUTO 25003KT 10SM SCT050 18/16 A2976 RMK AO1 P0001 =
2018-10-20 15:15 METAR KJGG 201915Z AUTO 00000KT 10SM SCT011 SCT050 18/16 A2976 RMK AO1 P0001 =
2018-10-20 14:55 METAR KJGG 201855Z AUTO 00000KT 10SM SCT009 18/17 A2978 RMK AO1 =
2018-10-20 14:35 METAR KJGG 201835Z AUTO 26008KT 10SM SCT009 18/17 A2979 RMK AO1 =
2018-10-20 14:15 METAR KJGG 201815Z AUTO 00000KT 10SM CLR 18/16 A2978 RMK AO1 =
2018-10-20 13:55 METAR KJGG 201755Z AUTO 25004KT 10SM CLR 18/16 A2980 RMK AO1 P0002 =
2018-10-20 13:35 METAR KJGG 201735Z AUTO 00000KT 10SM SCT009 18/17 A2980 RMK AO1 P0001 =

Support USWX by starting your Amazon purchase here.